Pagrindinis puslapis
METAR-TAF:

METAR-TAF

Oro uostai :

Qikiqtarjuaq, Nunavutas, Kanada

platuma: 67-33N, ilguma: 064-02W, Aukštis: 6 m

Dabartinis oras

Ataskaita buvo paskelbta 13 minutes, ne 13:00 UTC
Vėjas 8 kt iš Pietų/Pietvakarių
Temperatūra -29°C
Drėgmė 68%
Slėgis 1003 hPa
Matomumas: 19.3 km
Išsisklaidę debesys ne aukštis 3800 ft
Su prošvaistėmis ne aukštis 4800 ft
Apsiniaukę ne aukštis 11000 ft
ledo kristalai

METAR: CYVM 191300Z 20008KT 12SM IC SCT038 BKN048 OVC110 M29/M33 A2963 RMK SC3SC3AC2 SLP037

Laikas: 08:13 (13:13 UTC)

Prognozė

Ataskaita buvo paskelbta 35 minutes, ne 12:38 UTC
Prognozė galioja nuo 19 metu 13 UTC su 20 metu 01 UTC
Vėjas 8 kt iš Pietų/Pietvakarių
Matomumas: 10 km
Išsisklaidę debesys ne aukštis 8000 ft

TAF: CYVM 191238Z 1913/2001 20008KT P6SM SCT080 RMK FCST BASED ON AUTO OBS. NXT FCST BY 191900Z

Orai ataskaitas ir orų prognozės (METAR, TAF).

turimą stotys yra geltonos ir raudonos taškus žemėlapyje.

Perkelti pele per norėdami pamatyti stoties vardą.

Tada spustelėkite, norėdami matyti oro stebėjimo ir prognozės.

Norėdami pakeisti žemėlapį: spustelėkite ant žalios mygtukų su juodo kryžiaus žemyn,; žalią mygtuką su brūkšneliu, jei norite nutolinti; arba žalių rodyklių gretimoms žemėlapius.


METAR-TAF: